Time;durP1;ratioP1;P1;durP2;ratioP2;P2;SDS_P1;SDS_P2;PMS_P1;PMS_P2;Temp;Humidity;BMP_temperature;BMP_pressure;BME280_temperature;BME280_humidity;BME280_pressure;Samples;Min_cycle;Max_cycle;Signal;HPM_P1;HPM_P2
2022/09/05 00:01:41;;;;;;;0.20;0.10;;;;;;;;;;5016509;28;20076;-85
2022/09/05 00:04:14;;;;;;;0.20;0.10;;;;;;;;;;5000886;28;20206;-86
2022/09/05 00:06:44;;;;;;;0.20;0.10;;;;;;;;;;5002372;28;20450;-86
2022/09/05 00:09:16;;;;;;;0.20;0.10;;;;;;;;;;5004046;28;20083;-84
2022/09/05 00:11:42;;;;;;;;;;;;;;;;;;5015059;28;20057;-85
2022/09/05 00:14:19;;;;;;;0.20;0.10;;;;;;;;;;5000303;28;21669;-85
2022/09/05 00:17:04;;;;;;;0.20;0.10;;;;;;;;;;5019291;28;20168;-84
2022/09/05 00:19:38;;;;;;;0.20;0.10;;;;;;;;;;5015807;28;20120;-85
2022/09/05 00:22:07;;;;;;;0.20;0.10;;;;;;;;;;5003052;28;20048;-84
2022/09/05 00:24:51;;;;;;;0.20;0.10;;;;;;;;;;5038239;28;20718;-84
2022/09/05 00:27:22;;;;;;;0.30;0.10;;;;;;;;;;5002647;28;20495;-85
2022/09/05 00:29:54;;;;;;;0.20;0.10;;;;;;;;;;4999345;28;20052;-85
2022/09/05 00:32:29;;;;;;;0.20;0.10;;;;;;;;;;5018971;28;20042;-85
2022/09/05 00:34:59;;;;;;;0.20;0.10;;;;;;;;;;4996820;28;20049;-85
2022/09/05 00:37:44;;;;;;;0.20;0.10;;;;;;;;;;4999369;28;20045;-85
2022/09/05 00:40:20;;;;;;;0.20;0.10;;;;;;;;;;5018147;28;20052;-84
2022/09/05 00:42:52;;;;;;;0.20;0.10;;;;;;;;;;5002040;28;20041;-84
2022/09/05 00:45:26;;;;;;;0.20;0.10;;;;;;;;;;4999307;28;20045;-84
2022/09/05 00:48:07;;;;;;;0.20;0.10;;;;;;;;;;5014557;28;20504;-86
2022/09/05 00:50:43;;;;;;;0.20;0.10;;;;;;;;;;5003779;28;20037;-85
2022/09/05 00:53:28;;;;;;;0.20;0.10;;;;;;;;;;5015281;28;20171;-85
2022/09/05 00:56:13;;;;;;;0.20;0.10;;;;;;;;;;4999844;28;20400;-86
2022/09/05 00:58:59;;;;;;;0.20;0.10;;;;;;;;;;5005629;28;20050;-86
2022/09/05 01:01:28;;;;;;;0.20;0.10;;;;;;;;;;4989713;22;20471;-83
2022/09/05 01:04:01;;;;;;;0.20;0.10;;;;;;;;;;4995194;28;20066;-82
2022/09/05 01:06:27;;;;;;;;;;;;;;;;;;5008193;28;20049;-82
2022/09/05 01:09:12;;;;;;;0.20;0.10;;;;;;;;;;4994093;28;19952;-82
2022/09/05 01:11:42;;;;;;;0.20;0.10;;;;;;;;;;4977356;28;20056;-82
2022/09/05 01:14:19;;;;;;;0.20;0.10;;;;;;;;;;4982664;28;20038;-83
2022/09/05 01:16:45;;;;;;;0.20;0.10;;;;;;;;;;4980488;28;20038;-82
2022/09/05 01:19:30;;;;;;;0.20;0.10;;;;;;;;;;4993370;28;20053;-84
2022/09/05 01:22:16;;;;;;;0.20;0.10;;;;;;;;;;4975748;28;20459;-83
2022/09/05 01:24:42;;;;;;;0.20;0.10;;;;;;;;;;4987754;28;20129;-83
2022/09/05 01:27:27;;;;;;;0.20;0.10;;;;;;;;;;4977422;28;20137;-83
2022/09/05 01:29:59;;;;;;;0.20;0.10;;;;;;;;;;4990560;28;20480;-83
2022/09/05 01:32:39;;;;;;;0.20;0.10;;;;;;;;;;5005589;28;20167;-83
2022/09/05 01:35:24;;;;;;;0.20;0.10;;;;;;;;;;4994182;28;20057;-83
2022/09/05 01:37:54;;;;;;;0.20;0.10;;;;;;;;;;4991826;28;20050;-82
2022/09/05 01:40:25;;;;;;;0.20;0.10;;;;;;;;;;4988358;28;20111;-83
2022/09/05 01:43:00;;;;;;;0.20;0.10;;;;;;;;;;5000444;28;20038;-84
2022/09/05 01:45:45;;;;;;;0.95;0.60;;;;;;;;;;4985313;28;20066;-83
2022/09/05 01:48:29;;;;;;;0.20;0.10;;;;;;;;;;5014793;28;20527;-83
2022/09/05 01:50:58;;;;;;;0.20;0.10;;;;;;;;;;4999228;28;20136;-83
2022/09/05 01:53:47;;;;;;;0.20;0.10;;;;;;;;;;4997064;28;20034;-82
2022/09/05 01:56:33;;;;;;;0.20;0.10;;;;;;;;;;4997946;28;20072;-82
2022/09/05 01:59:11;;;;;;;0.20;0.10;;;;;;;;;;4997247;28;20053;-83
2022/09/05 02:01:56;;;;;;;0.20;0.10;;;;;;;;;;4977746;28;20129;-83
2022/09/05 02:04:22;;;;;;;0.20;0.10;;;;;;;;;;4982074;28;20303;-83
2022/09/05 02:06:51;;;;;;;0.20;0.10;;;;;;;;;;4999646;28;20045;-83
2022/09/05 02:09:20;;;;;;;0.20;0.10;;;;;;;;;;4998591;28;20045;-82
2022/09/05 02:11:56;;;;;;;0.20;0.10;;;;;;;;;;4996404;28;20026;-82
2022/09/05 02:14:35;;;;;;;0.25;0.15;;;;;;;;;;5012362;28;20042;-83
2022/09/05 02:17:14;;;;;;;0.20;0.10;;;;;;;;;;4983713;28;20068;-82
2022/09/05 02:19:46;;;;;;;0.43;0.43;;;;;;;;;;4981040;28;20112;-82
2022/09/05 02:22:18;;;;;;;0.20;0.10;;;;;;;;;;4994451;28;20070;-82
2022/09/05 02:24:46;;;;;;;0.20;0.10;;;;;;;;;;4996709;28;20141;-83
2022/09/05 02:27:15;;;;;;;0.20;0.10;;;;;;;;;;4995145;28;20042;-82
2022/09/05 02:30:08;;;;;;;0.20;0.10;;;;;;;;;;4986544;28;20150;-83
2022/09/05 02:32:47;;;;;;;0.20;0.10;;;;;;;;;;5008040;28;20038;-82
2022/09/05 02:35:36;;;;;;;0.20;0.10;;;;;;;;;;5007679;28;20072;-82
2022/09/05 02:38:02;;;;;;;0.20;0.10;;;;;;;;;;4996342;28;20176;-82
2022/09/05 02:40:38;;;;;;;0.30;0.25;;;;;;;;;;4975032;28;20481;-83
2022/09/05 02:43:04;;;;;;;0.20;0.10;;;;;;;;;;4991018;28;20584;-83
2022/09/05 02:45:49;;;;;;;0.20;0.10;;;;;;;;;;4990050;28;20038;-83
2022/09/05 02:48:27;;;;;;;0.20;0.10;;;;;;;;;;4989761;28;20108;-83
2022/09/05 02:50:59;;;;;;;0.20;0.10;;;;;;;;;;4991357;28;20037;-83
2022/09/05 02:53:27;;;;;;;0.20;0.10;;;;;;;;;;5005254;28;20049;-83
2022/09/05 02:55:53;;;;;;;0.20;0.10;;;;;;;;;;4989443;28;20113;-83
2022/09/05 02:58:28;;;;;;;0.20;0.10;;;;;;;;;;4975401;28;20045;-83
2022/09/05 03:01:00;;;;;;;0.20;0.10;;;;;;;;;;4968057;28;20046;-83
2022/09/05 03:04:05;;;;;;;0.20;0.10;;;;;;;;;;5004680;28;20101;-83
2022/09/05 03:06:31;;;;;;;0.20;0.10;;;;;;;;;;4903417;29;20055;-84
2022/09/05 03:08:57;;;;;;;0.20;0.10;;;;;;;;;;4899672;29;20040;-82
2022/09/05 03:11:36;;;;;;;0.20;0.10;;;;;;;;;;4949299;28;20425;-83
2022/09/05 03:14:02;;;;;;;0.20;0.10;;;;;;;;;;4979773;28;20037;-83
2022/09/05 03:16:28;;;;;;;0.20;0.10;;;;;;;;;;4991155;28;20459;-83
2022/09/05 03:19:01;;;;;;;0.20;0.10;;;;;;;;;;4972222;28;20041;-83
2022/09/05 03:21:40;;;;;;;0.20;0.10;;;;;;;;;;4990360;28;20046;-83
2022/09/05 03:24:21;;;;;;;0.20;0.10;;;;;;;;;;5007846;28;20137;-83
2022/09/05 03:27:06;;;;;;;0.20;0.10;;;;;;;;;;4991834;28;20046;-84
2022/09/05 03:29:47;;;;;;;0.20;0.10;;;;;;;;;;4977954;28;20034;-85
2022/09/05 03:32:32;;;;;;;0.20;0.10;;;;;;;;;;4993152;28;20044;-83
2022/09/05 03:35:01;;;;;;;0.20;0.10;;;;;;;;;;4984423;28;20089;-83
2022/09/05 03:37:33;;;;;;;0.20;0.10;;;;;;;;;;4995271;28;20030;-83
2022/09/05 03:39:59;;;;;;;0.20;0.10;;;;;;;;;;4993566;28;20129;-83
2022/09/05 03:42:44;;;;;;;0.47;0.40;;;;;;;;;;4990732;28;20046;-83
2022/09/05 03:45:13;;;;;;;0.20;0.10;;;;;;;;;;4971249;28;20512;-83
2022/09/05 03:47:39;;;;;;;0.20;0.10;;;;;;;;;;4977887;28;20052;-82
2022/09/05 03:50:32;;;;;;;0.20;0.10;;;;;;;;;;5001182;28;20041;-83
2022/09/05 03:53:17;;;;;;;0.20;0.10;;;;;;;;;;4988601;28;20041;-83
2022/09/05 03:55:52;;;;;;;0.20;0.10;;;;;;;;;;5005438;28;20050;-83
2022/09/05 03:58:34;;;;;;;0.20;0.10;;;;;;;;;;4990007;28;20104;-83
2022/09/05 04:01:12;;;;;;;0.20;0.10;;;;;;;;;;4975370;28;20056;-83
2022/09/05 04:03:41;;;;;;;0.20;0.10;;;;;;;;;;4986511;28;20073;-82
2022/09/05 04:06:12;;;;;;;0.20;0.10;;;;;;;;;;4986093;28;20037;-82
2022/09/05 04:09:07;;;;;;;0.20;0.10;;;;;;;;;;4996667;28;20069;-83
2022/09/05 04:11:40;;;;;;;0.20;0.10;;;;;;;;;;4961046;28;20681;-83
2022/09/05 04:14:09;;;;;;;0.20;0.10;;;;;;;;;;4993147;28;20050;-83
2022/09/05 04:16:58;;;;;;;0.20;0.10;;;;;;;;;;4994494;28;20723;-82
2022/09/05 04:19:46;;;;;;;0.20;0.10;;;;;;;;;;4985980;28;20038;-82
2022/09/05 04:22:15;;;;;;;0.20;0.10;;;;;;;;;;5009443;28;20689;-83
2022/09/05 04:24:46;;;;;;;0.20;0.10;;;;;;;;;;4993488;28;20061;-83
2022/09/05 04:27:15;;;;;;;0.20;0.20;;;;;;;;;;4987652;28;20666;-83
2022/09/05 04:29:44;;;;;;;0.57;0.20;;;;;;;;;;4980652;28;20033;-83
2022/09/05 04:32:18;;;;;;;0.20;0.10;;;;;;;;;;4977163;28;20044;-82
2022/09/05 04:35:04;;;;;;;0.30;0.20;;;;;;;;;;4992259;28;20420;-83
2022/09/05 04:37:42;;;;;;;0.20;0.10;;;;;;;;;;4976547;28;20058;-82
2022/09/05 04:40:27;;;;;;;0.20;0.10;;;;;;;;;;4971706;28;20069;-82
2022/09/05 04:42:53;;;;;;;0.20;0.10;;;;;;;;;;4987238;28;20157;-82
2022/09/05 04:45:19;;;;;;;0.20;0.10;;;;;;;;;;4960813;28;20037;-81
2022/09/05 04:47:49;;;;;;;0.20;0.10;;;;;;;;;;4971446;28;20587;-82
2022/09/05 04:50:20;;;;;;;0.20;0.10;;;;;;;;;;4993394;28;20511;-82
2022/09/05 04:52:46;;;;;;;0.20;0.10;;;;;;;;;;4992614;28;20040;-82
2022/09/05 04:55:21;;;;;;;0.20;0.10;;;;;;;;;;5008431;28;20405;-83
2022/09/05 04:58:05;;;;;;;0.20;0.10;;;;;;;;;;4992600;28;20041;-81
2022/09/05 05:00:34;;;;;;;0.20;0.10;;;;;;;;;;4993132;28;20041;-83
2022/09/05 05:03:02;;;;;;;0.30;0.20;;;;;;;;;;4991648;28;20420;-82
2022/09/05 05:05:41;;;;;;;0.50;0.50;;;;;;;;;;4989996;28;20041;-83
2022/09/05 05:08:33;;;;;;;0.20;0.10;;;;;;;;;;4992920;28;20034;-82
2022/09/05 05:11:02;;;;;;;0.20;0.10;;;;;;;;;;5005250;28;20532;-83
2022/09/05 05:13:34;;;;;;;0.20;0.10;;;;;;;;;;4992823;28;20045;-83
2022/09/05 05:16:04;;;;;;;0.32;0.15;;;;;;;;;;4975162;28;20042;-83
2022/09/05 05:18:40;;;;;;;0.20;0.20;;;;;;;;;;4979629;28;20041;-83
2022/09/05 05:21:13;;;;;;;0.20;0.10;;;;;;;;;;4981194;28;20046;-83
2022/09/05 05:23:42;;;;;;;0.20;0.10;;;;;;;;;;4983463;28;20450;-82
2022/09/05 05:26:19;;;;;;;0.20;0.10;;;;;;;;;;4997019;28;20034;-82
2022/09/05 05:28:48;;;;;;;0.20;0.10;;;;;;;;;;4998249;28;20057;-82
2022/09/05 05:31:16;;;;;;;0.30;0.20;;;;;;;;;;4981420;28;20057;-83
2022/09/05 05:33:46;;;;;;;0.20;0.10;;;;;;;;;;4999701;28;20030;-82
2022/09/05 05:36:16;;;;;;;0.20;0.10;;;;;;;;;;4977887;28;20075;-83
2022/09/05 05:38:50;;;;;;;0.20;0.10;;;;;;;;;;4999335;28;20052;-83
2022/09/05 05:41:21;;;;;;;0.20;0.10;;;;;;;;;;5006968;28;20476;-81
2022/09/05 05:43:48;;;;;;;0.30;0.20;;;;;;;;;;5000227;28;20067;-82
2022/09/05 05:46:27;;;;;;;0.20;0.10;;;;;;;;;;5000197;28;20030;-82
2022/09/05 05:48:54;;;;;;;0.20;0.10;;;;;;;;;;5000659;28;20050;-83
2022/09/05 05:51:36;;;;;;;0.20;0.10;;;;;;;;;;4999454;28;20301;-83
2022/09/05 05:54:02;;;;;;;0.20;0.10;;;;;;;;;;5000589;28;20160;-83
2022/09/05 05:56:38;;;;;;;0.20;0.10;;;;;;;;;;4982050;28;20129;-82
2022/09/05 05:59:23;;;;;;;0.20;0.10;;;;;;;;;;5008201;28;20046;-82
2022/09/05 06:01:52;;;;;;;0.43;0.30;;;;;;;;;;4976077;28;20053;-82
2022/09/05 06:04:37;;;;;;;0.20;0.10;;;;;;;;;;4984939;28;20893;-82
2022/09/05 06:07:18;;;;;;;0.20;0.10;;;;;;;;;;5015794;28;20065;-81
2022/09/05 06:10:05;;;;;;;0.20;0.10;;;;;;;;;;5016188;28;20042;-81
2022/09/05 06:12:50;;;;;;;0.20;0.10;;;;;;;;;;4997669;28;20038;-82
2022/09/05 06:15:20;;;;;;;0.20;0.10;;;;;;;;;;4997310;28;20054;-83
2022/09/05 06:17:50;;;;;;;0.20;0.10;;;;;;;;;;4994443;28;20056;-82
2022/09/05 06:20:25;;;;;;;0.20;0.10;;;;;;;;;;4998513;28;20037;-83
2022/09/05 06:23:11;;;;;;;0.20;0.10;;;;;;;;;;4997889;28;20121;-82
2022/09/05 06:25:53;;;;;;;0.20;0.10;;;;;;;;;;4980648;28;20166;-84
2022/09/05 06:28:38;;;;;;;0.20;0.20;;;;;;;;;;4993383;28;20056;-83
2022/09/05 06:31:33;;;;;;;0.20;0.10;;;;;;;;;;5002754;28;20038;-84
2022/09/05 06:34:20;;;;;;;0.20;0.20;;;;;;;;;;4980969;28;20036;-83
2022/09/05 06:36:46;;;;;;;0.20;0.10;;;;;;;;;;4987664;28;20140;-82
2022/09/05 06:39:21;;;;;;;0.20;0.10;;;;;;;;;;4982348;28;20053;-84
2022/09/05 06:41:47;;;;;;;0.20;0.10;;;;;;;;;;4993075;28;20041;-84
2022/09/05 06:44:14;;;;;;;0.20;0.10;;;;;;;;;;4999426;28;20042;-84
2022/09/05 06:46:44;;;;;;;0.20;0.00;;;;;;;;;;4982647;28;20072;-83
2022/09/05 06:49:21;;;;;;;0.20;0.10;;;;;;;;;;4998622;28;20516;-83
2022/09/05 06:52:06;;;;;;;0.20;0.10;;;;;;;;;;4999294;28;20042;-83
2022/09/05 06:54:35;;;;;;;0.20;0.10;;;;;;;;;;5001760;28;20045;-83
2022/09/05 06:57:09;;;;;;;0.20;0.10;;;;;;;;;;4999896;28;20041;-83
2022/09/05 07:02:17;;;;;;;0.20;0.10;;;;;;;;;;5049659;28;20506;-85
2022/09/05 07:05:00;;;;;;;0.20;0.10;;;;;;;;;;5025262;28;20037;-85
2022/09/05 07:07:46;;;;;;;0.20;0.10;;;;;;;;;;5019671;28;20288;-83
2022/09/05 07:10:44;;;;;;;0.20;0.10;;;;;;;;;;5018516;28;20140;-84
2022/09/05 07:13:40;;;;;;;0.20;0.10;;;;;;;;;;4996666;28;20052;-85
2022/09/05 07:16:16;;;;;;;0.20;0.10;;;;;;;;;;4957273;28;20145;-84
2022/09/05 07:19:07;;;;;;;0.20;0.10;;;;;;;;;;5002359;28;20045;-86
2022/09/05 07:21:42;;;;;;;0.20;0.10;;;;;;;;;;5007607;28;20065;-85
2022/09/05 07:24:10;;;;;;;0.20;0.10;;;;;;;;;;5012697;28;20067;-85
2022/09/05 07:26:39;;;;;;;0.20;0.10;;;;;;;;;;5018799;28;22255;-85
2022/09/05 07:29:06;;;;;;;0.20;0.10;;;;;;;;;;5016307;28;20044;-85
2022/09/05 07:31:37;;;;;;;0.20;0.20;;;;;;;;;;5002013;28;20037;-85
2022/09/05 07:34:18;;;;;;;0.20;0.10;;;;;;;;;;5019645;28;20049;-85
2022/09/05 07:36:46;;;;;;;0.20;0.10;;;;;;;;;;5001703;28;20032;-84
2022/09/05 07:39:17;;;;;;;0.20;0.10;;;;;;;;;;5004321;28;20132;-86
2022/09/05 07:41:52;;;;;;;0.20;0.10;;;;;;;;;;5018128;28;20037;-87
2022/09/05 07:44:45;;;;;;;0.20;0.10;;;;;;;;;;4994420;28;20052;-85
2022/09/05 07:47:14;;;;;;;0.20;0.10;;;;;;;;;;4994129;28;20080;-85
2022/09/05 07:49:41;;;;;;;0.20;0.13;;;;;;;;;;5029571;28;20044;-86
2022/09/05 07:52:15;;;;;;;0.20;0.10;;;;;;;;;;5005260;28;20041;-84
2022/09/05 07:54:45;;;;;;;0.20;0.17;;;;;;;;;;4996892;28;20410;-85
2022/09/05 07:57:21;;;;;;;0.20;0.10;;;;;;;;;;5002891;28;20045;-85
2022/09/05 07:59:52;;;;;;;0.20;0.10;;;;;;;;;;5004362;28;20064;-86
2022/09/05 08:02:18;;;;;;;0.20;0.10;;;;;;;;;;5019362;28;20127;-85
2022/09/05 08:04:44;;;;;;;0.20;0.10;;;;;;;;;;5001927;28;20041;-83
2022/09/05 08:07:21;;;;;;;0.20;0.10;;;;;;;;;;5037090;28;20057;-85
2022/09/05 08:09:49;;;;;;;0.20;0.10;;;;;;;;;;5014222;28;20049;-85
2022/09/05 08:12:20;;;;;;;0.20;0.10;;;;;;;;;;5013465;28;20044;-85
2022/09/05 08:14:51;;;;;;;0.20;0.10;;;;;;;;;;5005703;28;20407;-85
2022/09/05 08:17:19;;;;;;;0.20;0.10;;;;;;;;;;5026362;28;20458;-84
2022/09/05 08:19:54;;;;;;;0.20;0.10;;;;;;;;;;5024032;28;20033;-85
2022/09/05 08:22:23;;;;;;;0.20;0.10;;;;;;;;;;5025299;28;20041;-85
2022/09/05 08:24:56;;;;;;;0.20;0.10;;;;;;;;;;5014759;28;20419;-85
2022/09/05 08:27:45;;;;;;;0.20;0.10;;;;;;;;;;5027250;28;20475;-86
2022/09/05 08:30:15;;;;;;;0.20;0.10;;;;;;;;;;4984761;28;20040;-85
2022/09/05 08:32:45;;;;;;;0.20;0.10;;;;;;;;;;5007205;28;20037;-86
2022/09/05 08:35:11;;;;;;;0.20;0.10;;;;;;;;;;5013041;28;20072;-84
2022/09/05 08:37:37;;;;;;;0.50;0.20;;;;;;;;;;5012671;28;20376;-86
2022/09/05 08:40:09;;;;;;;0.20;0.10;;;;;;;;;;5008785;28;20044;-85
2022/09/05 08:42:47;;;;;;;0.20;0.10;;;;;;;;;;5002141;28;20037;-85
2022/09/05 08:45:21;;;;;;;0.20;0.10;;;;;;;;;;5008933;28;20036;-85
2022/09/05 08:47:50;;;;;;;0.20;0.10;;;;;;;;;;5006520;28;20063;-85
2022/09/05 08:50:35;;;;;;;0.20;0.10;;;;;;;;;;5021202;28;20069;-86
2022/09/05 08:53:20;;;;;;;0.20;0.10;;;;;;;;;;5022455;28;20411;-84
2022/09/05 08:55:51;;;;;;;0.20;0.20;;;;;;;;;;5006029;28;20040;-85
2022/09/05 08:58:33;;;;;;;0.20;0.10;;;;;;;;;;5007312;28;20037;-85
2022/09/05 09:01:11;;;;;;;0.20;0.10;;;;;;;;;;5025815;28;20098;-86
2022/09/05 09:03:58;;;;;;;0.20;0.10;;;;;;;;;;5003943;28;20064;-86
2022/09/05 09:06:30;;;;;;;0.90;0.50;;;;;;;;;;5004144;28;20044;-86
2022/09/05 09:08:56;;;;;;;;;;;;;;;;;;5026181;28;20123;-85
2022/09/05 09:11:42;;;;;;;0.20;0.10;;;;;;;;;;5004874;28;19981;-86
2022/09/05 09:14:21;;;;;;;0.20;0.10;;;;;;;;;;5024718;28;20045;-86
2022/09/05 09:17:01;;;;;;;0.20;0.10;;;;;;;;;;5003626;28;20124;-86
2022/09/05 09:19:45;;;;;;;0.20;0.10;;;;;;;;;;5007340;28;20040;-83
2022/09/05 09:22:31;;;;;;;0.20;0.10;;;;;;;;;;5023430;28;20119;-85
2022/09/05 09:24:58;;;;;;;0.20;0.10;;;;;;;;;;5031089;28;20077;-86
2022/09/05 09:27:24;;;;;;;0.20;0.10;;;;;;;;;;5002783;28;20120;-85
2022/09/05 09:29:51;;;;;;;0.20;0.10;;;;;;;;;;5018367;28;20064;-87
2022/09/05 09:32:21;;;;;;;0.20;0.10;;;;;;;;;;5005640;28;20051;-86
2022/09/05 09:34:48;;;;;;;0.20;0.10;;;;;;;;;;5001292;28;20404;-85
2022/09/05 09:37:28;;;;;;;0.20;0.10;;;;;;;;;;5014056;28;20091;-85
2022/09/05 09:40:04;;;;;;;0.20;0.10;;;;;;;;;;5018597;28;20083;-86
2022/09/05 09:42:33;;;;;;;0.20;0.10;;;;;;;;;;4996800;28;20037;-86
2022/09/05 09:45:18;;;;;;;0.20;0.10;;;;;;;;;;4999087;28;20052;-85
2022/09/05 09:48:03;;;;;;;0.20;0.10;;;;;;;;;;4998963;28;20133;-86
2022/09/05 09:50:41;;;;;;;0.20;0.10;;;;;;;;;;5016907;28;20068;-84
2022/09/05 09:53:19;;;;;;;0.20;0.10;;;;;;;;;;5031038;28;20120;-85
2022/09/05 09:56:08;;;;;;;0.20;0.10;;;;;;;;;;5002698;28;20128;-86
2022/09/05 09:58:35;;;;;;;0.20;0.10;;;;;;;;;;4971879;28;20063;-86
2022/09/05 10:01:07;;;;;;;0.20;0.17;;;;;;;;;;5004951;28;20077;-85
2022/09/05 10:03:33;;;;;;;;;;;;;;;;;;5000831;28;20241;-85
2022/09/05 10:06:18;;;;;;;0.20;0.10;;;;;;;;;;5026336;28;19929;-86
2022/09/05 10:08:56;;;;;;;0.20;0.10;;;;;;;;;;5020862;28;20506;-86
2022/09/05 10:11:22;;;;;;;0.20;0.10;;;;;;;;;;5020945;28;20040;-86
2022/09/05 10:14:07;;;;;;;0.20;0.10;;;;;;;;;;5024118;28;20060;-87
2022/09/05 10:16:42;;;;;;;0.20;0.10;;;;;;;;;;5004291;28;20076;-85
2022/09/05 10:19:15;;;;;;;0.25;0.15;;;;;;;;;;5007398;28;20482;-86
2022/09/05 10:21:41;;;;;;;;;;;;;;;;;;5009626;28;20037;-85
2022/09/05 10:24:26;;;;;;;0.20;0.10;;;;;;;;;;5017780;28;19928;-84
2022/09/05 10:27:07;;;;;;;0.20;0.10;;;;;;;;;;5004791;28;20051;-86
2022/09/05 10:29:38;;;;;;;0.20;0.10;;;;;;;;;;5026478;28;20037;-85
2022/09/05 10:32:13;;;;;;;0.20;0.10;;;;;;;;;;5022255;28;20822;-85
2022/09/05 10:34:46;;;;;;;0.20;0.10;;;;;;;;;;5004517;28;20053;-84
2022/09/05 10:37:13;;;;;;;0.20;0.20;;;;;;;;;;5002474;28;20037;-86
2022/09/05 10:39:45;;;;;;;0.20;0.10;;;;;;;;;;4999965;28;20280;-86
2022/09/05 10:42:13;;;;;;;;;;;;;;;;;;5019153;28;20079;-85
2022/09/05 10:44:46;;;;;;;0.20;0.10;;;;;;;;;;5016344;28;20452;-86
2022/09/05 10:47:22;;;;;;;0.20;0.10;;;;;;;;;;5000080;28;20138;-86
2022/09/05 10:49:49;;;;;;;0.20;0.10;;;;;;;;;;5022416;28;20045;-86
2022/09/05 10:52:21;;;;;;;0.20;0.10;;;;;;;;;;5004707;28;20128;-86
2022/09/05 10:55:04;;;;;;;0.20;0.10;;;;;;;;;;5024061;28;20068;-86
2022/09/05 10:57:30;;;;;;;0.20;0.10;;;;;;;;;;5022054;28;20045;-86
2022/09/05 11:00:08;;;;;;;0.30;0.20;;;;;;;;;;4999297;28;20539;-85
2022/09/05 11:02:40;;;;;;;0.20;0.10;;;;;;;;;;5019141;28;20076;-84
2022/09/05 11:05:29;;;;;;;0.20;0.10;;;;;;;;;;5023914;28;20045;-89
2022/09/05 11:07:58;;;;;;;0.20;0.10;;;;;;;;;;5010922;28;20041;-85
2022/09/05 11:10:34;;;;;;;0.20;0.10;;;;;;;;;;5008597;28;20041;-85
2022/09/05 11:13:09;;;;;;;0.20;0.10;;;;;;;;;;5026484;28;20052;-84
2022/09/05 11:15:54;;;;;;;0.20;0.10;;;;;;;;;;5024121;28;20110;-85
2022/09/05 11:18:21;;;;;;;0.20;0.10;;;;;;;;;;5028420;28;20167;-84
2022/09/05 11:20:54;;;;;;;0.20;0.10;;;;;;;;;;5009172;28;22329;-86
2022/09/05 11:23:22;;;;;;;0.20;0.10;;;;;;;;;;5028653;28;20091;-85
2022/09/05 11:25:59;;;;;;;0.20;0.10;;;;;;;;;;5010107;28;20037;-85
2022/09/05 11:28:38;;;;;;;0.30;0.10;;;;;;;;;;5008383;28;20037;-85
2022/09/05 11:31:09;;;;;;;0.20;0.10;;;;;;;;;;5011180;28;20045;-85
2022/09/05 11:33:46;;;;;;;0.20;0.10;;;;;;;;;;5010923;28;20037;-83
2022/09/05 11:36:18;;;;;;;0.20;0.10;;;;;;;;;;5028554;28;20399;-86
2022/09/05 11:38:47;;;;;;;0.20;0.10;;;;;;;;;;5010118;28;20048;-85
2022/09/05 11:41:30;;;;;;;0.20;0.10;;;;;;;;;;5032559;28;20557;-86
2022/09/05 11:43:56;;;;;;;0.20;0.10;;;;;;;;;;5017465;28;20095;-84
2022/09/05 11:46:26;;;;;;;0.20;0.10;;;;;;;;;;5018529;28;20038;-87
2022/09/05 11:49:17;;;;;;;0.30;0.25;;;;;;;;;;5008562;28;20041;-86
2022/09/05 11:51:53;;;;;;;0.20;0.10;;;;;;;;;;5029292;28;20033;-85
2022/09/05 11:54:38;;;;;;;0.20;0.10;;;;;;;;;;5023992;28;20057;-85
2022/09/05 11:57:10;;;;;;;0.20;0.10;;;;;;;;;;5005121;28;20511;-85
2022/09/05 11:59:39;;;;;;;;;;;;;;;;;;5024384;28;20456;-85
2022/09/05 12:02:19;;;;;;;0.20;0.10;;;;;;;;;;5028980;28;19920;-85
2022/09/05 12:05:28;;;;;;;;;;;;;;;;;;;;;
2022/09/05 12:08:35;;;;;;;0.20;0.10;;;;;;;;;;5013967;28;20048;-85
2022/09/05 12:11:44;;;;;;;0.20;0.10;;;;;;;;;;5045207;22;20049;-86
2022/09/05 12:17:47;;;;;;;0.20;0.10;;;;;;;;;;5033739;28;20049;-85
2022/09/05 12:20:24;;;;;;;0.20;0.10;;;;;;;;;;5006422;28;20097;-87
2022/09/05 12:23:03;;;;;;;0.20;0.10;;;;;;;;;;5014886;28;20451;-85
2022/09/05 12:45:07;;;;;;;0.20;0.10;;;;;;;;;;4814641;29;20054;-84
2022/09/05 12:48:15;;;;;;;0.20;0.10;;;;;;;;;;4874940;29;20497;-84
2022/09/05 12:50:56;;;;;;;0.20;0.10;;;;;;;;;;4851283;29;20185;-83
2022/09/05 12:56:44;;;;;;;0.20;0.10;;;;;;;;;;4978504;28;20066;-82
2022/09/05 12:59:17;;;;;;;0.20;0.10;;;;;;;;;;5045160;28;20092;-83
2022/09/05 13:01:43;;;;;;;0.20;0.10;;;;;;;;;;5024807;28;20546;-83
2022/09/05 13:04:20;;;;;;;0.20;0.10;;;;;;;;;;5047562;28;20141;-84
2022/09/05 13:07:08;;;;;;;0.20;0.10;;;;;;;;;;5043495;28;20044;-82
2022/09/05 13:09:41;;;;;;;0.20;0.10;;;;;;;;;;5023422;28;20095;-83
2022/09/05 13:12:16;;;;;;;0.20;0.10;;;;;;;;;;5045195;28;20048;-83
2022/09/05 13:14:51;;;;;;;0.20;0.10;;;;;;;;;;5026784;28;20028;-84
2022/09/05 13:17:18;;;;;;;0.20;0.10;;;;;;;;;;5024314;28;20045;-81
2022/09/05 13:19:50;;;;;;;0.20;0.10;;;;;;;;;;5025722;28;20041;-82
2022/09/05 13:22:19;;;;;;;0.20;0.10;;;;;;;;;;5060468;28;20037;-83
2022/09/05 13:24:48;;;;;;;0.20;0.10;;;;;;;;;;5042269;28;20033;-83
2022/09/05 13:27:16;;;;;;;0.20;0.10;;;;;;;;;;5042523;28;20128;-84
2022/09/05 13:29:50;;;;;;;0.20;0.10;;;;;;;;;;5018876;28;20033;-84
2022/09/05 13:32:36;;;;;;;0.20;0.10;;;;;;;;;;5020132;28;20033;-82
2022/09/05 13:35:05;;;;;;;0.20;0.10;;;;;;;;;;5045338;28;20411;-81
2022/09/05 13:37:36;;;;;;;0.20;0.10;;;;;;;;;;5034336;28;20044;-83
2022/09/05 13:40:08;;;;;;;0.20;0.10;;;;;;;;;;5041603;28;20044;-83
2022/09/05 13:42:38;;;;;;;0.20;0.10;;;;;;;;;;5046854;28;20404;-84
2022/09/05 13:45:07;;;;;;;0.20;0.10;;;;;;;;;;5029308;28;20048;-84
2022/09/05 13:47:33;;;;;;;0.20;0.10;;;;;;;;;;5042117;28;20044;-83
2022/09/05 13:50:01;;;;;;;0.20;0.10;;;;;;;;;;5050109;28;20549;-84
2022/09/05 13:52:36;;;;;;;0.20;0.10;;;;;;;;;;5039764;28;20087;-83
2022/09/05 13:55:11;;;;;;;0.20;0.10;;;;;;;;;;5052660;28;20055;-84
2022/09/05 13:57:43;;;;;;;0.20;0.10;;;;;;;;;;5034089;28;20056;-83
2022/09/05 14:00:14;;;;;;;0.20;0.10;;;;;;;;;;5053556;28;20082;-84
2022/09/05 14:03:01;;;;;;;0.20;0.10;;;;;;;;;;5030604;28;20044;-85
2022/09/05 14:05:45;;;;;;;0.20;0.10;;;;;;;;;;5027338;28;20029;-85
2022/09/05 14:08:26;;;;;;;0.20;0.10;;;;;;;;;;5035565;28;20037;-83
2022/09/05 14:10:53;;;;;;;0.20;0.10;;;;;;;;;;5050826;28;20037;-83
2022/09/05 14:13:30;;;;;;;0.20;0.10;;;;;;;;;;5049426;28;20179;-83
2022/09/05 14:15:58;;;;;;;0.20;0.10;;;;;;;;;;5050860;28;20079;-83
2022/09/05 14:18:26;;;;;;;0.20;0.10;;;;;;;;;;5024998;28;20056;-83
2022/09/05 14:23:43;;;;;;;0.20;0.10;;;;;;;;;;5050283;28;20043;-82
2022/09/05 14:26:17;;;;;;;0.20;0.10;;;;;;;;;;5027558;28;20033;-83
2022/09/05 14:28:49;;;;;;;0.20;0.10;;;;;;;;;;5044204;28;20090;-84
2022/09/05 14:31:19;;;;;;;0.20;0.10;;;;;;;;;;5042518;28;20135;-83
2022/09/05 14:33:54;;;;;;;0.20;0.10;;;;;;;;;;5036229;28;20033;-84
2022/09/05 14:36:53;;;;;;;0.20;0.10;;;;;;;;;;5058362;28;20495;-83
2022/09/05 14:39:28;;;;;;;0.20;0.10;;;;;;;;;;5012359;28;20091;-83
2022/09/05 14:42:00;;;;;;;0.20;0.10;;;;;;;;;;5028336;28;20045;-81
2022/09/05 14:44:42;;;;;;;0.20;0.10;;;;;;;;;;5038637;28;20407;-82
2022/09/05 14:47:31;;;;;;;0.20;0.10;;;;;;;;;;5052286;28;20041;-83
2022/09/05 14:50:10;;;;;;;0.20;0.10;;;;;;;;;;5045606;28;20494;-82
2022/09/05 14:52:36;;;;;;;0.20;0.10;;;;;;;;;;5027825;28;20407;-82
2022/09/05 14:55:12;;;;;;;0.20;0.10;;;;;;;;;;5024390;28;20048;-83
2022/09/05 14:57:42;;;;;;;0.20;0.10;;;;;;;;;;5027073;28;20469;-83
2022/09/05 15:00:12;;;;;;;0.20;0.10;;;;;;;;;;5044456;28;20219;-83
2022/09/05 15:02:41;;;;;;;0.20;0.10;;;;;;;;;;5019532;28;20043;-83
2022/09/05 15:05:13;;;;;;;0.20;0.10;;;;;;;;;;5043370;28;20072;-82
2022/09/05 15:07:39;;;;;;;;;;;;;;;;;;5036629;28;20044;-82
2022/09/05 15:10:12;;;;;;;0.20;0.10;;;;;;;;;;5037582;28;19943;-82
2022/09/05 15:12:47;;;;;;;0.20;0.10;;;;;;;;;;5039902;28;20442;-82
2022/09/05 15:15:14;;;;;;;0.20;0.10;;;;;;;;;;5036783;28;20041;-82
2022/09/05 15:17:44;;;;;;;0.20;0.10;;;;;;;;;;5021359;28;20056;-81
2022/09/05 15:20:25;;;;;;;0.20;0.10;;;;;;;;;;5022762;28;20372;-83
2022/09/05 15:22:52;;;;;;;0.20;0.10;;;;;;;;;;5039428;28;20040;-84
2022/09/05 15:25:20;;;;;;;0.20;0.10;;;;;;;;;;5017508;28;20099;-83
2022/09/05 15:27:46;;;;;;;0.20;0.10;;;;;;;;;;5021794;28;20037;-83
2022/09/05 15:30:26;;;;;;;0.20;0.10;;;;;;;;;;5035965;28;20095;-83
2022/09/05 15:33:10;;;;;;;0.20;0.10;;;;;;;;;;5020726;28;20068;-83
2022/09/05 15:35:41;;;;;;;0.20;0.10;;;;;;;;;;5035523;28;21459;-82
2022/09/05 15:38:26;;;;;;;0.20;0.10;;;;;;;;;;5020911;28;20068;-81
2022/09/05 15:41:14;;;;;;;0.20;0.10;;;;;;;;;;5035260;28;20443;-83
2022/09/05 15:43:59;;;;;;;0.20;0.10;;;;;;;;;;5035305;28;20048;-82
2022/09/05 15:46:27;;;;;;;0.20;0.10;;;;;;;;;;5017967;28;20077;-82
2022/09/05 15:48:57;;;;;;;0.20;0.10;;;;;;;;;;5033280;28;20079;-84
2022/09/05 15:51:44;;;;;;;0.20;0.10;;;;;;;;;;5041300;28;20391;-84
2022/09/05 15:54:13;;;;;;;0.20;0.10;;;;;;;;;;5037515;28;20051;-84
2022/09/05 15:56:45;;;;;;;0.20;0.10;;;;;;;;;;5040028;28;20094;-84
2022/09/05 15:59:12;;;;;;;0.20;0.10;;;;;;;;;;5043064;28;20045;-85
2022/09/05 16:01:38;;;;;;;0.20;0.10;;;;;;;;;;5019865;28;20049;-84
2022/09/05 16:04:08;;;;;;;0.20;0.10;;;;;;;;;;5039411;28;20049;-84
2022/09/05 16:06:34;;;;;;;0.20;0.10;;;;;;;;;;5036171;28;20483;-83